createdAt,value
2018-09-20T00:00:55.282Z,6.43
2018-09-20T00:03:58.795Z,6.10
2018-09-20T00:07:02.461Z,5.67
2018-09-20T00:10:06.345Z,6.70
2018-09-20T00:13:10.020Z,6.33
2018-09-20T00:16:13.756Z,7.07
2018-09-20T00:19:17.597Z,5.93
2018-09-20T00:22:21.167Z,6.77
2018-09-20T00:25:24.690Z,6.90
2018-09-20T00:28:28.455Z,5.97
2018-09-20T00:31:32.100Z,5.73
2018-09-20T00:34:35.675Z,6.33
2018-09-20T00:37:39.260Z,6.27
2018-09-20T00:40:42.915Z,5.83
2018-09-20T00:43:46.533Z,6.27
2018-09-20T00:46:50.029Z,6.47
2018-09-20T00:49:53.654Z,6.10
2018-09-20T00:52:57.327Z,6.70
2018-09-20T00:56:00.800Z,6.57
2018-09-20T00:59:04.456Z,6.40
2018-09-20T01:02:08.009Z,5.83
2018-09-20T01:05:11.615Z,6.10
2018-09-20T01:08:15.176Z,6.37
2018-09-20T01:11:18.823Z,6.30
2018-09-20T01:14:22.399Z,6.20
2018-09-20T01:17:25.943Z,6.07
2018-09-20T01:20:29.580Z,6.10
2018-09-20T01:23:33.200Z,6.40
2018-09-20T01:26:36.733Z,6.70
2018-09-20T01:29:40.249Z,5.87
2018-09-20T01:32:43.915Z,5.50
2018-09-20T01:35:47.486Z,5.70
2018-09-20T01:38:50.979Z,6.40
2018-09-20T01:41:54.530Z,6.43
2018-09-20T01:44:58.129Z,6.80
2018-09-20T01:48:01.729Z,6.40
2018-09-20T01:51:05.395Z,6.83
2018-09-20T01:54:08.989Z,6.83
2018-09-20T01:57:12.565Z,6.93
2018-09-20T02:00:16.130Z,7.27
2018-09-20T02:03:19.843Z,6.47
2018-09-20T02:06:23.482Z,6.93
2018-09-20T02:09:26.999Z,6.53
2018-09-20T02:12:30.562Z,6.23
2018-09-20T02:15:34.156Z,6.90
2018-09-20T02:18:37.690Z,6.90
2018-09-20T02:21:41.306Z,7.10
2018-09-20T02:24:44.844Z,6.30
2018-09-20T02:27:48.361Z,6.63
2018-09-20T02:30:51.905Z,6.50
2018-09-20T02:33:55.518Z,6.60
2018-09-20T02:36:59.015Z,7.10
2018-09-20T02:40:02.652Z,7.20
2018-09-20T02:43:06.281Z,6.80
2018-09-20T02:46:09.797Z,7.00
2018-09-20T02:49:13.356Z,6.33
2018-09-20T02:52:17.089Z,7.00
2018-09-20T02:55:20.713Z,7.07
2018-09-20T02:58:24.384Z,7.07
2018-09-20T03:01:28.040Z,6.37
2018-09-20T03:04:31.581Z,7.10
2018-09-20T03:07:35.154Z,6.90
2018-09-20T03:10:38.761Z,6.90
2018-09-20T03:13:42.421Z,7.10
2018-09-20T03:16:45.927Z,7.03
2018-09-20T03:19:49.491Z,7.10
2018-09-20T03:22:52.962Z,6.40
2018-09-20T03:25:56.563Z,7.60
2018-09-20T03:29:00.099Z,7.03
2018-09-20T03:32:03.645Z,7.77
2018-09-20T03:35:07.327Z,7.00
2018-09-20T03:38:10.965Z,7.40
2018-09-20T03:41:14.497Z,7.40
2018-09-20T03:44:18.119Z,7.27
2018-09-20T03:47:21.613Z,7.37
2018-09-20T03:50:25.107Z,6.57
2018-09-20T03:53:28.744Z,7.40
2018-09-20T03:56:32.305Z,6.93
2018-09-20T03:59:35.884Z,7.30
2018-09-20T04:02:39.416Z,6.97
2018-09-20T04:05:43.024Z,6.70
2018-09-20T04:08:46.598Z,7.20
2018-09-20T04:11:50.161Z,6.93
2018-09-20T04:14:53.830Z,6.90
2018-09-20T04:17:57.324Z,7.13
2018-09-20T04:21:00.852Z,7.10
2018-09-20T04:24:05.703Z,7.73
2018-09-20T04:27:09.200Z,6.93
2018-09-20T04:30:12.730Z,7.07
2018-09-20T04:33:16.301Z,7.90
2018-09-20T04:36:19.997Z,7.53
2018-09-20T04:39:23.557Z,7.37
2018-09-20T04:42:27.161Z,7.33
2018-09-20T04:45:30.685Z,7.00
2018-09-20T04:48:34.401Z,7.43
2018-09-20T04:51:37.935Z,7.77
2018-09-20T04:54:41.517Z,7.17
2018-09-20T04:57:45.101Z,7.40
2018-09-20T05:00:48.631Z,7.30
2018-09-20T05:03:52.175Z,7.00
2018-09-20T05:06:55.744Z,7.40
2018-09-20T05:09:59.227Z,7.50
2018-09-20T05:13:02.834Z,7.87
2018-09-20T05:16:06.445Z,7.20
2018-09-20T05:19:09.956Z,6.53
2018-09-20T05:22:13.596Z,7.60
2018-09-20T05:25:17.275Z,6.60
2018-09-20T05:28:20.937Z,7.00
2018-09-20T05:31:24.519Z,6.97
2018-09-20T05:34:28.176Z,6.80
2018-09-20T05:37:31.981Z,7.03
2018-09-20T05:40:35.475Z,7.50
2018-09-20T05:43:39.124Z,6.80
2018-09-20T05:46:43.317Z,7.63
2018-09-20T05:49:46.867Z,6.37
2018-09-20T05:52:50.466Z,7.40
2018-09-20T05:55:54.059Z,6.17
2018-09-20T05:58:57.544Z,6.63
2018-09-20T06:02:02.181Z,6.87
2018-09-20T06:05:06.066Z,6.80
2018-09-20T06:08:09.585Z,6.80
2018-09-20T06:11:13.127Z,6.93
2018-09-20T06:14:16.666Z,6.73
2018-09-20T06:17:20.149Z,7.30
2018-09-20T06:20:23.676Z,7.10
2018-09-20T06:23:27.275Z,6.50
2018-09-20T06:26:30.766Z,6.57
2018-09-20T06:29:34.381Z,6.37
2018-09-20T06:32:38.081Z,7.03
2018-09-20T06:35:41.685Z,6.87
2018-09-20T06:38:45.416Z,6.57
2018-09-20T06:41:48.979Z,6.43
2018-09-20T06:44:52.550Z,6.47
2018-09-20T06:47:56.080Z,6.17
2018-09-20T06:50:59.637Z,6.77
2018-09-20T06:54:03.404Z,6.00
2018-09-20T06:57:06.890Z,6.40
2018-09-20T07:00:10.437Z,6.43
2018-09-20T07:03:13.992Z,6.90
2018-09-20T07:06:17.583Z,6.60
2018-09-20T07:09:21.229Z,6.90
2018-09-20T07:12:24.776Z,6.73
2018-09-20T07:15:28.472Z,7.00
2018-09-20T07:18:31.999Z,6.53
2018-09-20T07:21:35.572Z,6.20
2018-09-20T07:24:39.075Z,6.40
2018-09-20T07:27:42.675Z,6.30
2018-09-20T07:30:46.221Z,6.80
2018-09-20T07:33:49.804Z,7.03
2018-09-20T07:36:53.350Z,5.83
2018-09-20T07:39:56.825Z,7.40
2018-09-20T07:43:00.492Z,6.50
2018-09-20T07:46:04.076Z,6.10
2018-09-20T07:49:07.599Z,6.23
2018-09-20T07:52:11.127Z,6.50
2018-09-20T07:55:14.732Z,6.63
2018-09-20T07:58:18.296Z,6.33
2018-09-20T08:01:21.930Z,5.73
2018-09-20T08:04:25.585Z,6.50
2018-09-20T08:07:29.700Z,6.50
2018-09-20T08:10:33.212Z,6.73
2018-09-20T08:13:36.836Z,6.23
2018-09-20T08:16:40.374Z,6.53
2018-09-20T08:19:44.055Z,5.70
2018-09-20T08:22:47.607Z,6.20
2018-09-20T08:25:51.287Z,6.33
2018-09-20T08:28:54.835Z,6.27
2018-09-20T08:31:58.405Z,6.20
2018-09-20T08:35:01.981Z,5.67
2018-09-20T08:38:05.456Z,6.07
2018-09-20T08:41:09.216Z,6.10
2018-09-20T08:44:12.761Z,6.20
2018-09-20T08:47:16.326Z,6.13
2018-09-20T08:50:19.897Z,6.27
2018-09-20T08:53:23.615Z,6.40
2018-09-20T08:56:27.237Z,6.63
2018-09-20T08:59:30.852Z,6.10
2018-09-20T09:02:34.455Z,5.87
2018-09-20T09:05:37.955Z,5.83
2018-09-20T09:08:41.455Z,5.80
2018-09-20T09:11:45.104Z,6.37
2018-09-20T09:14:48.951Z,5.90
2018-09-20T09:17:52.461Z,6.17
2018-09-20T09:20:56.194Z,5.70
2018-09-20T09:23:59.736Z,5.20
2018-09-20T09:27:03.325Z,5.87
2018-09-20T09:30:07.300Z,6.50
2018-09-20T09:33:10.848Z,5.47
2018-09-20T09:36:14.454Z,5.00
2018-09-20T09:39:17.951Z,6.00
2018-09-20T09:42:21.460Z,5.80
2018-09-20T09:45:25.374Z,6.17
2018-09-20T09:48:28.935Z,5.30
2018-09-20T09:51:32.436Z,5.53
2018-09-20T09:54:36.147Z,5.50
2018-09-20T09:57:39.791Z,6.00
2018-09-20T10:00:43.381Z,5.20
2018-09-20T10:03:46.915Z,5.20
2018-09-20T10:06:50.571Z,5.70
2018-09-20T10:09:54.193Z,4.63
2018-09-20T10:12:58.596Z,4.60
2018-09-20T10:16:02.137Z,5.00
2018-09-20T10:19:05.874Z,5.40
2018-09-20T10:22:09.392Z,4.73
2018-09-20T10:25:12.985Z,5.07
2018-09-20T10:28:16.635Z,4.97
2018-09-20T10:31:20.159Z,5.40
2018-09-20T10:34:23.672Z,5.00
2018-09-20T10:37:27.361Z,5.20
2018-09-20T10:40:30.939Z,5.07
2018-09-20T10:43:34.532Z,5.10
2018-09-20T10:46:38.137Z,5.50
2018-09-20T10:49:41.786Z,5.53
2018-09-20T10:52:45.311Z,5.60
2018-09-20T10:55:48.896Z,6.20
2018-09-20T10:58:52.521Z,5.97
2018-09-20T11:01:56.196Z,4.93
2018-09-20T11:04:59.852Z,6.17
2018-09-20T11:08:03.537Z,5.50
2018-09-20T11:11:07.464Z,5.33
2018-09-20T11:14:10.933Z,5.63
2018-09-20T11:17:14.507Z,5.23
2018-09-20T11:20:18.267Z,5.70
2018-09-20T11:23:21.847Z,5.20
2018-09-20T11:26:25.393Z,4.90
2018-09-20T11:29:28.866Z,5.47
2018-09-20T11:32:32.481Z,5.53
2018-09-20T11:35:36.092Z,5.50
2018-09-20T11:38:39.622Z,4.90
2018-09-20T11:41:43.315Z,5.03
2018-09-20T11:44:47.001Z,5.23
2018-09-20T11:47:50.508Z,5.10
2018-09-20T11:50:54.217Z,4.77
2018-09-20T11:53:57.867Z,5.40
2018-09-20T11:57:01.681Z,5.30
2018-09-20T12:00:05.397Z,5.10
2018-09-20T12:03:09.183Z,5.50
2018-09-20T12:06:12.733Z,5.50
2018-09-20T12:09:16.301Z,4.60
2018-09-20T12:12:19.944Z,5.40
2018-09-20T12:15:23.585Z,5.60
2018-09-20T12:18:27.316Z,5.13
2018-09-20T12:21:31.005Z,4.83
2018-09-20T12:24:34.712Z,5.00
2018-09-20T12:27:38.251Z,4.53
2018-09-20T12:30:42.087Z,4.70
2018-09-20T12:33:45.628Z,5.10
2018-09-20T12:36:49.501Z,4.90
2018-09-20T12:39:53.058Z,4.60
2018-09-20T12:42:56.812Z,4.70
2018-09-20T12:46:00.401Z,5.33
2018-09-20T12:49:04.233Z,5.03
2018-09-20T12:52:07.768Z,4.57
2018-09-20T12:55:11.367Z,5.20
2018-09-20T12:58:15.661Z,4.80
2018-09-20T13:01:20.476Z,4.80
2018-09-20T13:04:24.519Z,5.17
2018-09-20T13:07:28.156Z,4.97
2018-09-20T13:10:31.906Z,4.73
2018-09-20T13:13:35.511Z,5.07
2018-09-20T13:16:39.120Z,4.70
2018-09-20T13:19:42.681Z,4.60
2018-09-20T13:22:46.300Z,4.40
2018-09-20T13:25:50.005Z,4.53
2018-09-20T13:28:53.665Z,5.10
2018-09-20T13:31:57.215Z,5.30
2018-09-20T13:35:00.836Z,5.10
2018-09-20T13:38:04.468Z,5.53
2018-09-20T13:41:08.090Z,4.53
2018-09-20T13:44:11.795Z,4.40
2018-09-20T13:47:15.682Z,4.47
2018-09-20T13:50:19.401Z,4.37
2018-09-20T13:53:23.021Z,4.37
2018-09-20T13:56:26.773Z,4.87
2018-09-20T13:59:30.449Z,4.23
2018-09-20T14:02:34.039Z,4.43
2018-09-20T14:05:37.566Z,4.77
2018-09-20T14:08:41.325Z,4.80
2018-09-20T14:11:44.990Z,4.87
2018-09-20T14:14:48.605Z,5.00
2018-09-20T14:17:52.272Z,4.50
2018-09-20T14:20:56.065Z,4.70
2018-09-20T14:25:16.401Z,4.30
2018-09-20T14:28:20.064Z,4.00
2018-09-20T14:31:24.060Z,4.80
2018-09-20T14:34:27.665Z,5.57
2018-09-20T14:37:31.258Z,4.20
2018-09-20T14:40:34.857Z,4.57
2018-09-20T14:43:38.358Z,4.60
2018-09-20T14:46:42.366Z,4.77
2018-09-20T14:49:46.617Z,4.60
2018-09-20T14:52:51.700Z,4.30
2018-09-20T14:55:55.950Z,5.00
2018-09-20T14:58:59.526Z,4.07
2018-09-20T15:02:03.381Z,4.90
2018-09-20T15:05:07.321Z,4.70
2018-09-20T15:08:10.905Z,4.20
2018-09-20T15:11:14.475Z,4.60
2018-09-20T15:14:18.091Z,4.10
2018-09-20T15:17:21.760Z,4.30
2018-09-20T15:20:25.381Z,4.27
2018-09-20T15:23:28.969Z,4.13
2018-09-20T15:26:32.591Z,4.80
2018-09-20T15:29:36.171Z,4.37
2018-09-20T15:32:39.859Z,3.73
2018-09-20T15:35:43.279Z,4.03
2018-09-20T15:38:46.950Z,4.70
2018-09-20T15:41:50.541Z,4.40
2018-09-20T15:44:54.296Z,4.20
2018-09-20T15:47:57.892Z,4.20
2018-09-20T15:51:01.461Z,4.40
2018-09-20T15:54:05.132Z,4.50
2018-09-20T15:57:08.733Z,4.57
2018-09-20T16:00:12.543Z,4.17
2018-09-20T16:03:16.148Z,4.23
2018-09-20T16:06:19.739Z,4.47
2018-09-20T16:09:23.308Z,4.40
2018-09-20T16:12:27.047Z,4.27
2018-09-20T16:15:30.625Z,3.93
2018-09-20T16:18:34.218Z,4.50
2018-09-20T16:21:37.771Z,4.90
2018-09-20T16:24:41.407Z,4.50
2018-09-20T16:27:45.003Z,4.63
2018-09-20T16:31:08.415Z,4.60
2018-09-20T16:34:23.814Z,4.83
2018-09-20T16:37:42.717Z,4.40
2018-09-20T16:40:47.560Z,4.73
2018-09-20T16:43:51.191Z,5.40
2018-09-20T16:46:54.773Z,4.43
2018-09-20T16:49:58.579Z,4.80
2018-09-20T16:53:02.134Z,3.90
2018-09-20T16:56:05.785Z,4.30
2018-09-20T16:59:09.462Z,4.50
2018-09-20T17:02:13.045Z,4.00
2018-09-20T17:05:16.713Z,4.30
2018-09-20T17:08:20.362Z,5.00
2018-09-20T17:11:23.967Z,4.47
2018-09-20T17:14:27.628Z,4.50
2018-09-20T17:17:31.795Z,3.97
2018-09-20T17:20:35.376Z,4.40
2018-09-20T17:23:39.246Z,4.63
2018-09-20T17:26:42.857Z,4.23
2018-09-20T17:29:46.596Z,4.47
2018-09-20T17:32:50.266Z,4.10
2018-09-20T17:35:54.664Z,3.90
2018-09-20T17:38:59.087Z,4.33
2018-09-20T17:42:03.175Z,4.17
2018-09-20T17:45:06.733Z,5.00
2018-09-20T17:48:10.365Z,4.47
2018-09-20T17:51:16.259Z,4.20
2018-09-20T17:54:20.355Z,4.30
2018-09-20T17:57:24.703Z,4.63
2018-09-20T18:00:28.460Z,4.20
2018-09-20T18:03:32.079Z,4.67
2018-09-20T18:06:36.977Z,5.00
2018-09-20T18:09:40.833Z,4.63
2018-09-20T18:12:44.526Z,4.37
2018-09-20T18:15:48.200Z,4.80
2018-09-20T18:18:52.285Z,4.30
2018-09-20T18:21:55.933Z,4.53
2018-09-20T18:24:59.708Z,4.80
2018-09-20T18:28:03.548Z,4.10
2018-09-20T18:31:07.181Z,4.70
2018-09-20T18:34:10.951Z,4.70
2018-09-20T18:37:14.642Z,4.70
2018-09-20T18:40:18.371Z,4.90
2018-09-20T18:43:22.055Z,5.00
2018-09-20T18:46:25.795Z,4.83
2018-09-20T18:49:29.492Z,4.70
2018-09-20T18:52:33.273Z,5.60
2018-09-20T18:55:37.092Z,5.03
2018-09-20T18:58:40.995Z,4.80
2018-09-20T19:01:44.716Z,5.50
2018-09-20T19:04:48.454Z,4.60
2018-09-20T19:07:52.056Z,4.80
2018-09-20T19:10:55.762Z,4.70
2018-09-20T19:13:59.671Z,4.73
2018-09-20T19:17:03.298Z,4.90
2018-09-20T19:20:07.786Z,4.73
2018-09-20T19:23:11.471Z,4.63
2018-09-20T19:26:17.097Z,4.60
2018-09-20T19:29:29.986Z,5.13
2018-09-20T19:32:33.586Z,5.10
2018-09-20T19:35:37.224Z,5.53
2018-09-20T19:38:41.690Z,4.63
2018-09-20T19:41:45.270Z,4.30
2018-09-20T19:44:48.888Z,4.80
2018-09-20T19:47:52.567Z,5.27
2018-09-20T19:50:56.372Z,4.53
2018-09-20T19:54:00.088Z,5.20
2018-09-20T19:57:04.241Z,4.70
2018-09-20T20:00:08.230Z,4.83
2018-09-20T20:03:11.890Z,4.87
2018-09-20T20:06:15.475Z,5.10
2018-09-20T20:09:19.105Z,4.83
2018-09-20T20:12:22.738Z,4.67
2018-09-20T20:15:26.411Z,5.10
2018-09-20T20:18:30.020Z,4.53
2018-09-20T20:21:34.616Z,5.60
2018-09-20T20:24:38.244Z,4.80
2018-09-20T20:27:41.809Z,4.63
2018-09-20T20:30:45.524Z,5.00
2018-09-20T20:33:49.231Z,5.20
2018-09-20T20:36:52.863Z,5.27
2018-09-20T20:39:58.745Z,4.53
2018-09-20T20:43:02.510Z,5.10
2018-09-20T20:46:06.275Z,4.80
2018-09-20T20:49:10.060Z,5.00
2018-09-20T20:52:13.815Z,5.63
2018-09-20T20:55:17.508Z,4.73
2018-09-20T20:58:21.176Z,5.20
2018-09-20T21:01:24.748Z,5.40
2018-09-20T21:04:28.320Z,4.87
2018-09-20T21:07:31.924Z,4.60
2018-09-20T21:10:35.625Z,5.20
2018-09-20T21:13:39.302Z,5.43
2018-09-20T21:16:42.880Z,5.10
2018-09-20T21:19:46.570Z,5.23
2018-09-20T21:22:50.156Z,5.37
2018-09-20T21:25:53.892Z,5.17
2018-09-20T21:28:57.467Z,4.70
2018-09-20T21:32:01.082Z,5.13
2018-09-20T21:35:04.669Z,5.37
2018-09-20T21:38:08.227Z,4.97
2018-09-20T21:41:11.887Z,4.50
2018-09-20T21:44:15.550Z,5.20
2018-09-20T21:47:19.117Z,4.70
2018-09-20T21:50:22.732Z,4.80
2018-09-20T21:53:26.466Z,5.10
2018-09-20T21:56:30.001Z,5.37
2018-09-20T21:59:33.643Z,4.90
2018-09-20T22:02:42.411Z,5.50
2018-09-20T22:05:46.162Z,5.07
2018-09-20T22:08:49.801Z,5.20
2018-09-20T22:11:53.436Z,4.70
2018-09-20T22:14:57.017Z,4.83
2018-09-20T22:18:00.537Z,5.10
2018-09-20T22:21:04.128Z,4.40
2018-09-20T22:24:07.656Z,4.73
2018-09-20T22:27:11.186Z,4.40
2018-09-20T22:30:15.061Z,4.13
2018-09-20T22:33:18.666Z,4.73
2018-09-20T22:36:22.308Z,4.40
2018-09-20T22:39:25.902Z,4.30
2018-09-20T22:42:30.813Z,4.47
2018-09-20T22:45:34.307Z,4.37
2018-09-20T22:48:38.041Z,4.70
2018-09-20T22:51:41.656Z,4.00
2018-09-20T22:54:45.209Z,4.33
2018-09-20T22:57:48.742Z,4.53
2018-09-20T23:00:52.328Z,4.27
2018-09-20T23:03:55.862Z,4.70
2018-09-20T23:06:59.497Z,4.43
2018-09-20T23:10:03.123Z,4.63
2018-09-20T23:13:06.904Z,4.23
2018-09-20T23:16:10.546Z,4.60
2018-09-20T23:19:14.143Z,4.70
2018-09-20T23:22:17.672Z,4.40
2018-09-20T23:25:21.263Z,4.43
2018-09-20T23:28:24.789Z,4.60
2018-09-20T23:31:28.481Z,4.50
2018-09-20T23:34:32.046Z,4.40
2018-09-20T23:37:35.599Z,4.37
2018-09-20T23:40:39.213Z,4.37
2018-09-20T23:43:42.739Z,4.57
2018-09-20T23:46:46.360Z,4.87
2018-09-20T23:49:49.939Z,4.60
2018-09-20T23:52:53.610Z,4.10
2018-09-20T23:55:57.319Z,4.47
2018-09-20T23:59:00.908Z,4.73
